Time;durP1;ratioP1;P1;durP2;ratioP2;P2;SDS_P1;SDS_P2;PMS_P1;PMS_P2;Temp;Humidity;BMP_temperature;BMP_pressure;BME280_temperature;BME280_humidity;BME280_pressure;Samples;Min_cycle;Max_cycle;Signal;HPM_P1;HPM_P2
2022/02/13 00:00:35;;;;;;;;;;;;;;;;;;5027656;28;20385;-54
2022/02/13 00:03:01;;;;;;;;;;;;;;;;;;5028524;28;19932;-54
2022/02/13 00:05:26;;;;;;;;;;;;;;;;;;5029402;28;19972;-55
2022/02/13 00:07:52;;;;;;;;;;;;;;;;;;5026508;28;20652;-56
2022/02/13 00:10:17;;;;;;;;;;;;;;;;;;5025773;28;19964;-55
2022/02/13 00:12:43;;;;;;;;;;;;;;;;;;5026343;28;20653;-55
2022/02/13 00:15:08;;;;;;;;;;;;;;;;;;5027234;28;19925;-54
2022/02/13 00:17:34;;;;;;;;;;;;;;;;;;5026685;28;20002;-55
2022/02/13 00:20:02;;;;;;;;;;;;;;;;;;5028072;28;19924;-56
2022/02/13 00:22:28;;;;;;;;;;;;;;;;;;5018681;28;20007;-57
2022/02/13 00:24:53;;;;;;;;;;;;;;;;;;5056075;28;19986;-55
2022/02/13 00:27:19;;;;;;;;;;;;;;;;;;5025650;28;20032;-55
2022/02/13 00:29:44;;;;;;;;;;;;;;;;;;5019606;28;19925;-54
2022/02/13 00:32:10;;;;;;;;;;;;;;;;;;5028855;28;19921;-56
2022/02/13 00:34:35;;;;;;;;;;;;;;;;;;5026277;28;21839;-56
2022/02/13 00:37:01;;;;;;;;;;;;;;;;;;5043498;28;20493;-55
2022/02/13 00:39:27;;;;;;;;;;;;;;;;;;5027167;28;19974;-53
2022/02/13 00:41:52;;;;;;;;;;;;;;;;;;5027286;28;20007;-56
2022/02/13 00:44:18;;;;;;;;;;;;;;;;;;5026559;28;19931;-55
2022/02/13 00:46:43;;;;;;;;;;;;;;;;;;5027612;28;19948;-57
2022/02/13 00:49:09;;;;;;;;;;;;;;;;;;5027629;28;19921;-56
2022/02/13 00:51:34;;;;;;;;;;;;;;;;;;5054806;28;19943;-55
2022/02/13 00:53:59;;;;;;;;;;;;;;;;;;5056985;28;19927;-57
2022/02/13 00:56:25;;;;;;;;;;;;;;;;;;5031811;28;19955;-56
2022/02/13 00:58:51;;;;;;;;;;;;;;;;;;5031012;28;19921;-56
2022/02/13 01:01:17;;;;;;;;;;;;;;;;;;5027466;28;20401;-53
2022/02/13 01:03:42;;;;;;;;;;;;;;;;;;5026765;28;20415;-52
2022/02/13 01:06:08;;;;;;;;;;;;;;;;;;5027085;28;21111;-56
2022/02/13 01:08:33;;;;;;;;;;;;;;;;;;5024816;28;20265;-57
2022/02/13 01:10:59;;;;;;;;;;;;;;;;;;5028388;28;20023;-55
2022/02/13 01:13:24;;;;;;;;;;;;;;;;;;5025795;28;20022;-55
2022/02/13 01:15:50;;;;;;;;;;;;;;;;;;5026015;28;19975;-55
2022/02/13 01:18:15;;;;;;;;;;;;;;;;;;5027699;28;19921;-54
2022/02/13 01:20:41;;;;;;;;;;;;;;;;;;5023434;28;20027;-56
2022/02/13 01:23:06;;;;;;;;;;;;;;;;;;5024698;28;20378;-55
2022/02/13 01:25:32;;;;;;;;;;;;;;;;;;5024930;28;20361;-56
2022/02/13 01:27:57;;;;;;;;;;;;;;;;;;5025545;28;19922;-54
2022/02/13 01:30:23;;;;;;;;;;;;;;;;;;5042047;28;19925;-54
2022/02/13 01:32:48;;;;;;;;;;;;;;;;;;5023414;28;20309;-51
2022/02/13 01:35:14;;;;;;;;;;;;;;;;;;5027501;28;19921;-55
2022/02/13 01:37:39;;;;;;;;;;;;;;;;;;5027178;28;19972;-56
2022/02/13 01:40:05;;;;;;;;;;;;;;;;;;5030929;28;19928;-55
2022/02/13 01:42:30;;;;;;;;;;;;;;;;;;5025742;28;19924;-54
2022/02/13 01:44:57;;;;;;;;;;;;;;;;;;5027331;28;19936;-56
2022/02/13 01:47:22;;;;;;;;;;;;;;;;;;5026064;28;19960;-55
2022/02/13 01:49:48;;;;;;;;;;;;;;;;;;5027343;28;20015;-56
2022/02/13 01:52:13;;;;;;;;;;;;;;;;;;5028817;28;19921;-55
2022/02/13 01:54:39;;;;;;;;;;;;;;;;;;5024907;28;22301;-56
2022/02/13 01:57:04;;;;;;;;;;;;;;;;;;5026163;28;19921;-56
2022/02/13 01:59:29;;;;;;;;;;;;;;;;;;5029202;28;20545;-55
2022/02/13 02:01:55;;;;;;;;;;;;;;;;;;5030969;28;19988;-56
2022/02/13 02:04:20;;;;;;;;;;;;;;;;;;5031327;28;19921;-57
2022/02/13 02:06:46;;;;;;;;;;;;;;;;;;5029768;28;20458;-56
2022/02/13 02:09:11;;;;;;;;;;;;;;;;;;5028125;28;20487;-54
2022/02/13 02:11:37;;;;;;;;;;;;;;;;;;5027256;28;19959;-56
2022/02/13 02:14:02;;;;;;;;;;;;;;;;;;5028055;28;20394;-56
2022/02/13 02:16:28;;;;;;;;;;;;;;;;;;5025768;28;19992;-53
2022/02/13 02:18:53;;;;;;;;;;;;;;;;;;5029545;28;19925;-56
2022/02/13 02:21:18;;;;;;;;;;;;;;;;;;5026661;28;19921;-55
2022/02/13 02:23:44;;;;;;;;;;;;;;;;;;5025764;28;19960;-56
2022/02/13 02:26:09;;;;;;;;;;;;;;;;;;5023966;28;20000;-53
2022/02/13 02:28:35;;;;;;;;;;;;;;;;;;5023070;28;20010;-54
2022/02/13 02:31:00;;;;;;;;;;;;;;;;;;5022540;28;20432;-55
2022/02/13 02:33:27;;;;;;;;;;;;;;;;;;5024240;28;19978;-56
2022/02/13 02:35:52;;;;;;;;;;;;;;;;;;5023307;28;19974;-54
2022/02/13 02:38:18;;;;;;;;;;;;;;;;;;5047039;28;19926;-54
2022/02/13 02:40:43;;;;;;;;;;;;;;;;;;5024890;28;19927;-54
2022/02/13 02:43:09;;;;;;;;;;;;;;;;;;5026717;28;20989;-53
2022/02/13 02:45:34;;;;;;;;;;;;;;;;;;5025441;28;20325;-53
2022/02/13 02:48:00;;;;;;;;;;;;;;;;;;5026255;28;20961;-53
2022/02/13 02:50:25;;;;;;;;;;;;;;;;;;5024710;28;19917;-55
2022/02/13 02:52:50;;;;;;;;;;;;;;;;;;5025001;28;19925;-55
2022/02/13 02:55:16;;;;;;;;;;;;;;;;;;5023196;28;20393;-52
2022/02/13 02:57:41;;;;;;;;;;;;;;;;;;5025152;28;20497;-52
2022/02/13 03:00:07;;;;;;;;;;;;;;;;;;5025652;28;19925;-52
2022/02/13 03:02:33;;;;;;;;;;;;;;;;;;5023371;28;19925;-55
2022/02/13 03:04:58;;;;;;;;;;;;;;;;;;5023812;28;19932;-53
2022/02/13 03:07:24;;;;;;;;;;;;;;;;;;5021077;28;19925;-55
2022/02/13 03:09:49;;;;;;;;;;;;;;;;;;5024658;28;19956;-53
2022/02/13 03:12:15;;;;;;;;;;;;;;;;;;5025311;28;19920;-55
2022/02/13 03:14:40;;;;;;;;;;;;;;;;;;5021937;28;19975;-54
2022/02/13 03:17:06;;;;;;;;;;;;;;;;;;5023492;28;20374;-55
2022/02/13 03:19:32;;;;;;;;;;;;;;;;;;5023527;28;19932;-54
2022/02/13 03:21:57;;;;;;;;;;;;;;;;;;5023238;28;19921;-54
2022/02/13 03:24:23;;;;;;;;;;;;;;;;;;5022973;28;20513;-52
2022/02/13 03:26:52;;;;;;;;;;;;;;;;;;5038131;28;20507;-54
2022/02/13 03:29:21;;;;;;;;;;;;;;;;;;5026752;28;20007;-55
2022/02/13 03:31:48;;;;;;;;;;;;;;;;;;5024830;28;19920;-56
2022/02/13 03:34:13;;;;;;;;;;;;;;;;;;5045050;28;19932;-55
2022/02/13 03:36:39;;;;;;;;;;;;;;;;;;5048993;28;19920;-53
2022/02/13 03:39:04;;;;;;;;;;;;;;;;;;5045170;28;19925;-55
2022/02/13 03:41:30;;;;;;;;;;;;;;;;;;5023902;28;19924;-55
2022/02/13 03:43:55;;;;;;;;;;;;;;;;;;5044604;28;19973;-55
2022/02/13 03:46:20;;;;;;;;;;;;;;;;;;5043656;28;19975;-55
2022/02/13 03:48:46;;;;;;;;;;;;;;;;;;5044393;28;19920;-55
2022/02/13 03:51:11;;;;;;;;;;;;;;;;;;5027014;28;20315;-52
2022/02/13 03:53:37;;;;;;;;;;;;;;;;;;5025990;28;19983;-55
2022/02/13 03:56:02;;;;;;;;;;;;;;;;;;5044238;28;20759;-54
2022/02/13 03:58:28;;;;;;;;;;;;;;;;;;5043711;28;20286;-55
2022/02/13 04:00:53;;;;;;;;;;;;;;;;;;5044775;28;20428;-55
2022/02/13 04:03:19;;;;;;;;;;;;;;;;;;5044184;28;19974;-52
2022/02/13 04:05:44;;;;;;;;;;;;;;;;;;5044480;28;19928;-54
2022/02/13 04:08:10;;;;;;;;;;;;;;;;;;5045016;28;19925;-55
2022/02/13 04:10:35;;;;;;;;;;;;;;;;;;5044068;28;19920;-55
2022/02/13 04:13:01;;;;;;;;;;;;;;;;;;5043823;28;19936;-56
2022/02/13 04:15:26;;;;;;;;;;;;;;;;;;5024642;28;19921;-55
2022/02/13 04:17:52;;;;;;;;;;;;;;;;;;5044378;28;19925;-54
2022/02/13 04:20:18;;;;;;;;;;;;;;;;;;5043343;28;20313;-56
2022/02/13 04:22:43;;;;;;;;;;;;;;;;;;5044760;28;19921;-55
2022/02/13 04:25:09;;;;;;;;;;;;;;;;;;5043442;28;19975;-56
2022/02/13 04:27:36;;;;;;;;;;;;;;;;;;5025705;28;20029;-53
2022/02/13 04:30:01;;;;;;;;;;;;;;;;;;5048099;28;20408;-53
2022/02/13 04:32:27;;;;;;;;;;;;;;;;;;5027551;28;19946;-56
2022/02/13 04:34:52;;;;;;;;;;;;;;;;;;5048375;28;20388;-54
2022/02/13 04:37:18;;;;;;;;;;;;;;;;;;5028981;28;19931;-54
2022/02/13 04:39:43;;;;;;;;;;;;;;;;;;5027237;28;20381;-55
2022/02/13 04:42:09;;;;;;;;;;;;;;;;;;5048640;28;19924;-54
2022/02/13 04:44:34;;;;;;;;;;;;;;;;;;5048743;28;19931;-55
2022/02/13 04:46:59;;;;;;;;;;;;;;;;;;5048374;28;19959;-55
2022/02/13 04:49:25;;;;;;;;;;;;;;;;;;5064080;28;19926;-55
2022/02/13 04:51:50;;;;;;;;;;;;;;;;;;5047657;28;19935;-55
2022/02/13 04:54:16;;;;;;;;;;;;;;;;;;5048339;28;19966;-55
2022/02/13 04:56:41;;;;;;;;;;;;;;;;;;5027876;28;20293;-54
2022/02/13 04:59:07;;;;;;;;;;;;;;;;;;5048413;28;19921;-56
2022/02/13 05:01:32;;;;;;;;;;;;;;;;;;5062462;28;20010;-55
2022/02/13 05:03:58;;;;;;;;;;;;;;;;;;5049273;28;19924;-54
2022/02/13 05:06:23;;;;;;;;;;;;;;;;;;5045916;28;19929;-57
2022/02/13 05:08:49;;;;;;;;;;;;;;;;;;5047462;28;20891;-55
2022/02/13 05:11:14;;;;;;;;;;;;;;;;;;5048755;28;20034;-56
2022/02/13 05:13:40;;;;;;;;;;;;;;;;;;5047568;28;19948;-55
2022/02/13 05:16:05;;;;;;;;;;;;;;;;;;4995632;28;19922;-55
2022/02/13 05:18:31;;;;;;;;;;;;;;;;;;4995027;28;19928;-54
2022/02/13 05:20:56;;;;;;;;;;;;;;;;;;4996851;28;19921;-56
2022/02/13 05:23:24;;;;;;;;;;;;;;;;;;4993486;28;20029;-55
2022/02/13 05:25:49;;;;;;;;;;;;;;;;;;4994865;28;19933;-56
2022/02/13 05:28:15;;;;;;;;;;;;;;;;;;5012620;28;19952;-53
2022/02/13 05:30:40;;;;;;;;;;;;;;;;;;4994698;28;19925;-56
2022/02/13 05:33:06;;;;;;;;;;;;;;;;;;4981826;28;19921;-53
2022/02/13 05:35:31;;;;;;;;;;;;;;;;;;5010479;28;19921;-56
2022/02/13 05:38:05;;;;;;;;;;;;;;;;;;5010283;28;20405;-56
2022/02/13 05:40:31;;;;;;;;;;;;;;;;;;5009728;28;19927;-56
2022/02/13 05:42:56;;;;;;;;;;;;;;;;;;4994441;28;20005;-56
2022/02/13 05:45:23;;;;;;;;;;;;;;;;;;5010723;28;19929;-54
2022/02/13 05:47:48;;;;;;;;;;;;;;;;;;5036864;28;19979;-54
2022/02/13 05:50:14;;;;;;;;;;;;;;;;;;5047322;28;20300;-55
2022/02/13 05:52:39;;;;;;;;;;;;;;;;;;5045640;28;20446;-56
2022/02/13 05:55:05;;;;;;;;;;;;;;;;;;5045942;28;20674;-56
2022/02/13 05:57:31;;;;;;;;;;;;;;;;;;5046260;28;19935;-56
2022/02/13 05:59:56;;;;;;;;;;;;;;;;;;5048531;28;19928;-54
2022/02/13 06:02:22;;;;;;;;;;;;;;;;;;5046340;28;20011;-56
2022/02/13 06:04:47;;;;;;;;;;;;;;;;;;5032644;28;19944;-55
2022/02/13 06:07:12;;;;;;;;;;;;;;;;;;5047192;28;20001;-56
2022/02/13 06:09:38;;;;;;;;;;;;;;;;;;5048680;28;20396;-54
2022/02/13 06:12:03;;;;;;;;;;;;;;;;;;5032614;28;19951;-54
2022/02/13 06:14:29;;;;;;;;;;;;;;;;;;5052164;28;19916;-56
2022/02/13 06:16:56;;;;;;;;;;;;;;;;;;5050812;28;19920;-56
2022/02/13 06:19:22;;;;;;;;;;;;;;;;;;5047135;28;19921;-56
2022/02/13 06:21:47;;;;;;;;;;;;;;;;;;5047641;28;19929;-56
2022/02/13 06:24:13;;;;;;;;;;;;;;;;;;5026037;28;19940;-55
2022/02/13 06:26:39;;;;;;;;;;;;;;;;;;5025862;28;19933;-55
2022/02/13 06:29:05;;;;;;;;;;;;;;;;;;5023784;28;20014;-55
2022/02/13 06:31:30;;;;;;;;;;;;;;;;;;5026224;28;20381;-54
2022/02/13 06:33:56;;;;;;;;;;;;;;;;;;5027538;28;20357;-54
2022/02/13 06:36:21;;;;;;;;;;;;;;;;;;5024794;28;20286;-54
2022/02/13 06:38:47;;;;;;;;;;;;;;;;;;5028023;28;19998;-55
2022/02/13 06:41:12;;;;;;;;;;;;;;;;;;5029546;28;20040;-56
2022/02/13 06:43:38;;;;;;;;;;;;;;;;;;5029102;28;20588;-55
2022/02/13 06:46:03;;;;;;;;;;;;;;;;;;5049256;28;19932;-54
2022/02/13 06:48:30;;;;;;;;;;;;;;;;;;5022474;28;19924;-56
2022/02/13 06:50:55;;;;;;;;;;;;;;;;;;5029230;28;19932;-56
2022/02/13 06:53:21;;;;;;;;;;;;;;;;;;5025740;28;20610;-56
2022/02/13 06:55:46;;;;;;;;;;;;;;;;;;5026558;28;19920;-53
2022/02/13 06:58:12;;;;;;;;;;;;;;;;;;5028150;28;20035;-54
2022/02/13 07:00:40;;;;;;;;;;;;;;;;;;5025888;28;19921;-56
2022/02/13 07:03:05;;;;;;;;;;;;;;;;;;5026959;28;19927;-55
2022/02/13 07:05:31;;;;;;;;;;;;;;;;;;5026573;28;20345;-55
2022/02/13 07:07:57;;;;;;;;;;;;;;;;;;5026684;28;20413;-53
2022/02/13 07:10:22;;;;;;;;;;;;;;;;;;5027118;28;19925;-55
2022/02/13 07:12:48;;;;;;;;;;;;;;;;;;5026906;28;20393;-55
2022/02/13 07:15:13;;;;;;;;;;;;;;;;;;5025890;28;19953;-55
2022/02/13 07:17:39;;;;;;;;;;;;;;;;;;5025126;28;19921;-55
2022/02/13 07:20:04;;;;;;;;;;;;;;;;;;5024244;28;19925;-55
2022/02/13 07:22:30;;;;;;;;;;;;;;;;;;5025258;28;20011;-55
2022/02/13 07:24:55;;;;;;;;;;;;;;;;;;5036775;28;21874;-55
2022/02/13 07:27:21;;;;;;;;;;;;;;;;;;5026267;28;20400;-55
2022/02/13 07:29:46;;;;;;;;;;;;;;;;;;5045637;28;19971;-56
2022/02/13 07:32:12;;;;;;;;;;;;;;;;;;5044283;28;19933;-57
2022/02/13 07:34:37;;;;;;;;;;;;;;;;;;5025322;28;19925;-56
2022/02/13 07:37:03;;;;;;;;;;;;;;;;;;5045902;28;20000;-54
2022/02/13 07:39:29;;;;;;;;;;;;;;;;;;5044900;28;20293;-55
2022/02/13 07:41:54;;;;;;;;;;;;;;;;;;5044370;28;19920;-55
2022/02/13 07:44:20;;;;;;;;;;;;;;;;;;5044991;28;19929;-54
2022/02/13 07:46:45;;;;;;;;;;;;;;;;;;5044951;28;19928;-55
2022/02/13 07:49:10;;;;;;;;;;;;;;;;;;5045648;28;20424;-55
2022/02/13 07:51:36;;;;;;;;;;;;;;;;;;5043733;28;19924;-52
2022/02/13 07:54:02;;;;;;;;;;;;;;;;;;5060295;28;20417;-55
2022/02/13 07:56:27;;;;;;;;;;;;;;;;;;5042912;28;19931;-55
2022/02/13 07:58:53;;;;;;;;;;;;;;;;;;5027521;28;20294;-55
2022/02/13 08:01:19;;;;;;;;;;;;;;;;;;5044375;28;19924;-55
2022/02/13 08:03:45;;;;;;;;;;;;;;;;;;5049259;28;19956;-56
2022/02/13 08:06:12;;;;;;;;;;;;;;;;;;5048945;28;19936;-55
2022/02/13 08:08:37;;;;;;;;;;;;;;;;;;5048152;28;19925;-53
2022/02/13 08:11:03;;;;;;;;;;;;;;;;;;5048252;28;19925;-55
2022/02/13 08:13:29;;;;;;;;;;;;;;;;;;5048413;28;19928;-53
2022/02/13 08:15:54;;;;;;;;;;;;;;;;;;5047986;28;19924;-56
2022/02/13 08:18:19;;;;;;;;;;;;;;;;;;5049053;28;19927;-55
2022/02/13 08:20:46;;;;;;;;;;;;;;;;;;5029017;28;19920;-55
2022/02/13 08:23:11;;;;;;;;;;;;;;;;;;5049762;28;19986;-52
2022/02/13 08:25:37;;;;;;;;;;;;;;;;;;5048277;28;20370;-53
2022/02/13 08:28:02;;;;;;;;;;;;;;;;;;5050114;28;19925;-55
2022/02/13 08:30:28;;;;;;;;;;;;;;;;;;5047249;28;19928;-55
2022/02/13 08:32:53;;;;;;;;;;;;;;;;;;5049701;28;19925;-54
2022/02/13 08:35:19;;;;;;;;;;;;;;;;;;5047795;28;20373;-55
2022/02/13 08:37:44;;;;;;;;;;;;;;;;;;5048923;28;19925;-55
2022/02/13 08:40:09;;;;;;;;;;;;;;;;;;5048514;28;20344;-55
2022/02/13 08:42:35;;;;;;;;;;;;;;;;;;5029297;28;20002;-52
2022/02/13 08:45:00;;;;;;;;;;;;;;;;;;5047613;28;20249;-56
2022/02/13 08:47:26;;;;;;;;;;;;;;;;;;5049019;28;19925;-56
2022/02/13 08:49:51;;;;;;;;;;;;;;;;;;5050816;28;19921;-54
2022/02/13 08:52:17;;;;;;;;;;;;;;;;;;5049031;28;20389;-55
2022/02/13 08:54:42;;;;;;;;;;;;;;;;;;5049613;28;19925;-56
2022/02/13 08:57:08;;;;;;;;;;;;;;;;;;5048940;28;19932;-53
2022/02/13 08:59:33;;;;;;;;;;;;;;;;;;5046661;28;19932;-54
2022/02/13 09:01:58;;;;;;;;;;;;;;;;;;5046869;28;20003;-53
2022/02/13 09:04:24;;;;;;;;;;;;;;;;;;5046672;28;20441;-53
2022/02/13 09:06:49;;;;;;;;;;;;;;;;;;5047777;28;20308;-54
2022/02/13 09:09:16;;;;;;;;;;;;;;;;;;5029959;28;20302;-55
2022/02/13 09:11:41;;;;;;;;;;;;;;;;;;5045979;28;19924;-55
2022/02/13 09:14:09;;;;;;;;;;;;;;;;;;5047896;28;19925;-55
2022/02/13 09:16:34;;;;;;;;;;;;;;;;;;5047287;28;19931;-55
2022/02/13 09:19:00;;;;;;;;;;;;;;;;;;5047902;28;19921;-53
2022/02/13 09:21:25;;;;;;;;;;;;;;;;;;5046556;28;19931;-54
2022/02/13 09:23:51;;;;;;;;;;;;;;;;;;5046605;28;20012;-55
2022/02/13 09:26:16;;;;;;;;;;;;;;;;;;5046513;28;20016;-54
2022/02/13 09:28:41;;;;;;;;;;;;;;;;;;5047587;28;19928;-55
2022/02/13 09:31:08;;;;;;;;;;;;;;;;;;5046553;28;19989;-54
2022/02/13 09:33:33;;;;;;;;;;;;;;;;;;5046529;28;20392;-55
2022/02/13 09:35:59;;;;;;;;;;;;;;;;;;5048016;28;19950;-55
2022/02/13 09:38:24;;;;;;;;;;;;;;;;;;5046063;28;19928;-56
2022/02/13 09:40:50;;;;;;;;;;;;;;;;;;5047341;28;19921;-54
2022/02/13 09:43:16;;;;;;;;;;;;;;;;;;5029518;28;19947;-54
2022/02/13 09:45:42;;;;;;;;;;;;;;;;;;5045665;28;19976;-55
2022/02/13 09:48:08;;;;;;;;;;;;;;;;;;5047751;28;19936;-53
2022/02/13 09:50:36;;;;;;;;;;;;;;;;;;5046372;28;20451;-55
2022/02/13 09:53:02;;;;;;;;;;;;;;;;;;5047197;28;20390;-54
2022/02/13 09:55:29;;;;;;;;;;;;;;;;;;5048239;28;19978;-55
2022/02/13 09:58:02;;;;;;;;;;;;;;;;;;5050681;28;19973;-55
2022/02/13 10:00:27;;;;;;;;;;;;;;;;;;5045895;28;19964;-52
2022/02/13 10:02:54;;;;;;;;;;;;;;;;;;5046785;28;20030;-55
2022/02/13 10:05:19;;;;;;;;;;;;;;;;;;5046063;28;19937;-52
2022/02/13 10:07:45;;;;;;;;;;;;;;;;;;5046039;28;19924;-52
2022/02/13 10:10:10;;;;;;;;;;;;;;;;;;5028972;28;19925;-53
2022/02/13 10:12:39;;;;;;;;;;;;;;;;;;5028556;28;19927;-52
2022/02/13 10:15:05;;;;;;;;;;;;;;;;;;5046264;28;20296;-55
2022/02/13 10:17:30;;;;;;;;;;;;;;;;;;5044528;28;19920;-54
2022/02/13 10:19:56;;;;;;;;;;;;;;;;;;5046818;28;19931;-55
2022/02/13 10:22:21;;;;;;;;;;;;;;;;;;5045656;28;19989;-51
2022/02/13 10:24:46;;;;;;;;;;;;;;;;;;5044721;28;19933;-52
2022/02/13 10:27:12;;;;;;;;;;;;;;;;;;5045620;28;19928;-55
2022/02/13 10:29:37;;;;;;;;;;;;;;;;;;5046102;28;19925;-54
2022/02/13 10:32:03;;;;;;;;;;;;;;;;;;5046459;28;19924;-54
2022/02/13 10:34:28;;;;;;;;;;;;;;;;;;5044897;28;20305;-53
2022/02/13 10:36:54;;;;;;;;;;;;;;;;;;5045531;28;19920;-54
2022/02/13 10:39:19;;;;;;;;;;;;;;;;;;5045010;28;19963;-54
2022/02/13 10:41:45;;;;;;;;;;;;;;;;;;5046158;28;19925;-54
2022/02/13 10:44:10;;;;;;;;;;;;;;;;;;5025616;28;19968;-53
2022/02/13 10:46:36;;;;;;;;;;;;;;;;;;5045137;28;19955;-53
2022/02/13 10:49:01;;;;;;;;;;;;;;;;;;5045885;28;20441;-52
2022/02/13 10:51:30;;;;;;;;;;;;;;;;;;5044842;28;19971;-55
2022/02/13 10:53:55;;;;;;;;;;;;;;;;;;5046179;28;19921;-54
2022/02/13 10:56:21;;;;;;;;;;;;;;;;;;5044210;28;20823;-52
2022/02/13 10:58:46;;;;;;;;;;;;;;;;;;5048353;28;19920;-54
2022/02/13 11:01:12;;;;;;;;;;;;;;;;;;5047541;28;19924;-52
2022/02/13 11:03:37;;;;;;;;;;;;;;;;;;5045914;28;19960;-54
2022/02/13 11:06:03;;;;;;;;;;;;;;;;;;5046602;28;19993;-53
2022/02/13 11:08:30;;;;;;;;;;;;;;;;;;5046543;28;19920;-53
2022/02/13 11:10:57;;;;;;;;;;;;;;;;;;5046874;28;19925;-52
2022/02/13 11:13:22;;;;;;;;;;;;;;;;;;5045469;28;20007;-52
2022/02/13 11:15:49;;;;;;;;;;;;;;;;;;5045831;28;19924;-52
2022/02/13 11:18:14;;;;;;;;;;;;;;;;;;5045414;28;19920;-55
2022/02/13 11:20:39;;;;;;;;;;;;;;;;;;5044085;28;20341;-54
2022/02/13 11:23:05;;;;;;;;;;;;;;;;;;5048389;28;20305;-55
2022/02/13 11:25:30;;;;;;;;;;;;;;;;;;5045510;28;19963;-54
2022/02/13 11:27:57;;;;;;;;;;;;;;;;;;5048305;28;19920;-55
2022/02/13 11:30:23;;;;;;;;;;;;;;;;;;5027442;28;19936;-55
2022/02/13 11:32:49;;;;;;;;;;;;;;;;;;5045672;28;19925;-56
2022/02/13 11:35:19;;;;;;;;;;;;;;;;;;5044684;28;19977;-56
2022/02/13 11:37:45;;;;;;;;;;;;;;;;;;5045092;28;20289;-56
2022/02/13 11:40:10;;;;;;;;;;;;;;;;;;5045289;28;19925;-53
2022/02/13 11:42:36;;;;;;;;;;;;;;;;;;5044741;28;19931;-56
2022/02/13 11:45:01;;;;;;;;;;;;;;;;;;5043548;28;19920;-55
2022/02/13 11:47:27;;;;;;;;;;;;;;;;;;5043886;28;19925;-54
2022/02/13 11:49:52;;;;;;;;;;;;;;;;;;5045989;28;20472;-56
2022/02/13 11:52:18;;;;;;;;;;;;;;;;;;5044484;28;19935;-55
2022/02/13 11:54:45;;;;;;;;;;;;;;;;;;5043981;28;20337;-53
2022/02/13 11:57:10;;;;;;;;;;;;;;;;;;5048663;28;20049;-55
2022/02/13 11:59:36;;;;;;;;;;;;;;;;;;5046035;28;19928;-53
2022/02/13 12:02:01;;;;;;;;;;;;;;;;;;5045624;28;19943;-55
2022/02/13 12:04:27;;;;;;;;;;;;;;;;;;5043155;28;19921;-53
2022/02/13 12:06:55;;;;;;;;;;;;;;;;;;5044518;28;20002;-54
2022/02/13 12:09:20;;;;;;;;;;;;;;;;;;5044979;28;19921;-54
2022/02/13 12:11:46;;;;;;;;;;;;;;;;;;5046313;28;19934;-55
2022/02/13 12:14:11;;;;;;;;;;;;;;;;;;5046603;28;20308;-55
2022/02/13 12:16:37;;;;;;;;;;;;;;;;;;5043971;28;19924;-55
2022/02/13 12:19:02;;;;;;;;;;;;;;;;;;5045135;28;19959;-54
2022/02/13 12:21:28;;;;;;;;;;;;;;;;;;5042015;28;20548;-54
2022/02/13 12:23:53;;;;;;;;;;;;;;;;;;5024876;28;19970;-56
2022/02/13 12:26:19;;;;;;;;;;;;;;;;;;5014738;28;19924;-52
2022/02/13 12:28:46;;;;;;;;;;;;;;;;;;5060775;28;19925;-55
2022/02/13 12:31:11;;;;;;;;;;;;;;;;;;5044398;28;19932;-52
2022/02/13 12:33:37;;;;;;;;;;;;;;;;;;5043060;28;19989;-52
2022/02/13 12:36:02;;;;;;;;;;;;;;;;;;5043644;28;19999;-55
2022/02/13 12:38:28;;;;;;;;;;;;;;;;;;5043915;28;19940;-54
2022/02/13 12:40:54;;;;;;;;;;;;;;;;;;5044925;28;19932;-53
2022/02/13 12:43:19;;;;;;;;;;;;;;;;;;5044076;28;19920;-52
2022/02/13 12:45:45;;;;;;;;;;;;;;;;;;5043970;28;19937;-58
2022/02/13 12:48:10;;;;;;;;;;;;;;;;;;5044200;28;19920;-53
2022/02/13 12:50:37;;;;;;;;;;;;;;;;;;5048727;28;19932;-54
2022/02/13 12:53:02;;;;;;;;;;;;;;;;;;5047425;28;19921;-55
2022/02/13 12:55:29;;;;;;;;;;;;;;;;;;5047864;28;20269;-53
2022/02/13 12:57:54;;;;;;;;;;;;;;;;;;5047528;28;20463;-52
2022/02/13 13:00:20;;;;;;;;;;;;;;;;;;5047267;28;19921;-52
2022/02/13 13:02:47;;;;;;;;;;;;;;;;;;5047743;28;19925;-52
2022/02/13 13:05:19;;;;;;;;;;;;;;;;;;5047956;28;19920;-54
2022/02/13 13:07:45;;;;;;;;;;;;;;;;;;5047004;28;19921;-54
2022/02/13 13:10:10;;;;;;;;;;;;;;;;;;5025333;28;19932;-55
2022/02/13 13:12:36;;;;;;;;;;;;;;;;;;5024405;28;19967;-55
2022/02/13 13:15:01;;;;;;;;;;;;;;;;;;5026926;28;20409;-54
2022/02/13 13:17:32;;;;;;;;;;;;;;;;;;5027265;28;19921;-53
2022/02/13 13:19:57;;;;;;;;;;;;;;;;;;5028372;28;19931;-52
2022/02/13 13:22:22;;;;;;;;;;;;;;;;;;5027755;28;19925;-53
2022/02/13 13:24:48;;;;;;;;;;;;;;;;;;5029778;28;20015;-56
2022/02/13 13:27:13;;;;;;;;;;;;;;;;;;5034181;28;20085;-54
2022/02/13 13:29:39;;;;;;;;;;;;;;;;;;5032468;28;20481;-54
2022/02/13 13:32:05;;;;;;;;;;;;;;;;;;5029872;28;20393;-54
2022/02/13 13:34:30;;;;;;;;;;;;;;;;;;5028063;28;20490;-56
2022/02/13 13:36:56;;;;;;;;;;;;;;;;;;5028547;28;20015;-54
2022/02/13 13:39:21;;;;;;;;;;;;;;;;;;5027398;28;19941;-53
2022/02/13 13:41:47;;;;;;;;;;;;;;;;;;5026999;28;20048;-55
2022/02/13 13:44:12;;;;;;;;;;;;;;;;;;5028164;28;19925;-56
2022/02/13 13:46:38;;;;;;;;;;;;;;;;;;5026440;28;19928;-54
2022/02/13 13:49:04;;;;;;;;;;;;;;;;;;5026527;28;20373;-53
2022/02/13 13:51:29;;;;;;;;;;;;;;;;;;5026906;28;19928;-55
2022/02/13 13:53:55;;;;;;;;;;;;;;;;;;5028843;28;19921;-55
2022/02/13 13:56:20;;;;;;;;;;;;;;;;;;5026215;28;19928;-52
2022/02/13 13:58:45;;;;;;;;;;;;;;;;;;5027609;28;19932;-55
2022/02/13 14:01:11;;;;;;;;;;;;;;;;;;5025495;28;19917;-55
2022/02/13 14:03:37;;;;;;;;;;;;;;;;;;5027722;28;19932;-54
2022/02/13 14:06:02;;;;;;;;;;;;;;;;;;5026493;28;19929;-54
2022/02/13 14:08:28;;;;;;;;;;;;;;;;;;5027213;28;19932;-55
2022/02/13 14:10:55;;;;;;;;;;;;;;;;;;5026222;28;19956;-52
2022/02/13 14:13:20;;;;;;;;;;;;;;;;;;5025685;28;19925;-55
2022/02/13 14:15:45;;;;;;;;;;;;;;;;;;5026645;28;19931;-54
2022/02/13 14:18:11;;;;;;;;;;;;;;;;;;5026663;28;20030;-52
2022/02/13 14:20:36;;;;;;;;;;;;;;;;;;5025011;28;20011;-53
2022/02/13 14:23:02;;;;;;;;;;;;;;;;;;5025816;28;19977;-54
2022/02/13 14:25:27;;;;;;;;;;;;;;;;;;5023859;28;19983;-55
2022/02/13 14:27:53;;;;;;;;;;;;;;;;;;5027530;28;20025;-55
2022/02/13 14:30:18;;;;;;;;;;;;;;;;;;5026081;28;20465;-56
2022/02/13 14:32:44;;;;;;;;;;;;;;;;;;5026516;28;21706;-54
2022/02/13 14:35:09;;;;;;;;;;;;;;;;;;5026238;28;19932;-54
2022/02/13 14:37:34;;;;;;;;;;;;;;;;;;5023552;28;19921;-53
2022/02/13 14:40:00;;;;;;;;;;;;;;;;;;5026516;28;19925;-52
2022/02/13 14:42:27;;;;;;;;;;;;;;;;;;5023452;28;20362;-53
2022/02/13 14:44:52;;;;;;;;;;;;;;;;;;5025939;28;19920;-55
2022/02/13 14:47:18;;;;;;;;;;;;;;;;;;5024135;28;20287;-55
2022/02/13 14:49:44;;;;;;;;;;;;;;;;;;5026002;28;20004;-56
2022/02/13 14:52:09;;;;;;;;;;;;;;;;;;5025830;28;20020;-53
2022/02/13 14:54:35;;;;;;;;;;;;;;;;;;5025626;28;19956;-55
2022/02/13 14:57:00;;;;;;;;;;;;;;;;;;5025154;28;20019;-55
2022/02/13 14:59:26;;;;;;;;;;;;;;;;;;5039692;28;19975;-53
2022/02/13 15:01:51;;;;;;;;;;;;;;;;;;5023278;28;20043;-52
2022/02/13 15:04:17;;;;;;;;;;;;;;;;;;5029364;28;19920;-54
2022/02/13 15:06:42;;;;;;;;;;;;;;;;;;5027843;28;19939;-54
2022/02/13 15:09:08;;;;;;;;;;;;;;;;;;5044667;28;19936;-55
2022/02/13 15:11:33;;;;;;;;;;;;;;;;;;5042127;28;19936;-55
2022/02/13 15:13:59;;;;;;;;;;;;;;;;;;5045773;28;19924;-53
2022/02/13 15:16:24;;;;;;;;;;;;;;;;;;5045316;28;19932;-53
2022/02/13 15:18:50;;;;;;;;;;;;;;;;;;5044282;28;20066;-55
2022/02/13 15:21:15;;;;;;;;;;;;;;;;;;5051606;28;19927;-54
2022/02/13 15:23:41;;;;;;;;;;;;;;;;;;5044838;28;19925;-52
2022/02/13 15:26:06;;;;;;;;;;;;;;;;;;5045061;28;19936;-53
2022/02/13 15:28:32;;;;;;;;;;;;;;;;;;5046047;28;19929;-52
2022/02/13 15:30:57;;;;;;;;;;;;;;;;;;5045425;28;20426;-54
2022/02/13 15:33:23;;;;;;;;;;;;;;;;;;5044794;28;20021;-55
2022/02/13 15:35:48;;;;;;;;;;;;;;;;;;5046614;28;19928;-52
2022/02/13 15:38:14;;;;;;;;;;;;;;;;;;5046049;28;20382;-51
2022/02/13 15:40:40;;;;;;;;;;;;;;;;;;5043851;28;20277;-54
2022/02/13 15:43:05;;;;;;;;;;;;;;;;;;5028366;28;19954;-53
2022/02/13 15:45:30;;;;;;;;;;;;;;;;;;5044289;28;19974;-53
2022/02/13 15:47:56;;;;;;;;;;;;;;;;;;5045485;28;19921;-54
2022/02/13 15:50:21;;;;;;;;;;;;;;;;;;5043924;28;20038;-52
2022/02/13 15:52:47;;;;;;;;;;;;;;;;;;5044101;28;19948;-55
2022/02/13 15:55:12;;;;;;;;;;;;;;;;;;5044407;28;19979;-53
2022/02/13 15:57:38;;;;;;;;;;;;;;;;;;5024502;28;19921;-52
2022/02/13 16:00:03;;;;;;;;;;;;;;;;;;5045275;28;20992;-57
2022/02/13 16:02:29;;;;;;;;;;;;;;;;;;5044959;28;19921;-55
2022/02/13 16:04:54;;;;;;;;;;;;;;;;;;5047427;28;19925;-55
2022/02/13 16:07:20;;;;;;;;;;;;;;;;;;5045160;28;19928;-53
2022/02/13 16:09:46;;;;;;;;;;;;;;;;;;5045402;28;20047;-53
2022/02/13 16:12:11;;;;;;;;;;;;;;;;;;5024748;28;19925;-54
2022/02/13 16:14:37;;;;;;;;;;;;;;;;;;5027403;28;20420;-56
2022/02/13 16:17:02;;;;;;;;;;;;;;;;;;5025696;28;19921;-56
2022/02/13 16:19:28;;;;;;;;;;;;;;;;;;5043706;28;19920;-53
2022/02/13 16:21:56;;;;;;;;;;;;;;;;;;5042934;28;19929;-55
2022/02/13 16:24:21;;;;;;;;;;;;;;;;;;5045033;28;19943;-53
2022/02/13 16:26:47;;;;;;;;;;;;;;;;;;5047213;28;19933;-56
2022/02/13 16:29:13;;;;;;;;;;;;;;;;;;5048630;28;19927;-56
2022/02/13 16:31:38;;;;;;;;;;;;;;;;;;5048247;28;19947;-55
2022/02/13 16:34:03;;;;;;;;;;;;;;;;;;5049048;28;19920;-55